Appleyard, Washington
Current Conditions -  °F | °C
As of 6:55 AM on Sunday 23 Nov 2014 (Local Time) from KEAT Reporting Station
Few Clouds Few Clouds  
Wind Chill: 28°   Ceiling: Unl
Heat Index: 35°   Visibility: 10mi
Dew Point: 28°   Wind: 9mph
Humidity: 76%   Direction: 70°ENE
Pressure: 30.06"   Gusts: NA
Location:  47.3635°N, 120.348°W
Report Text: KEAT 231455Z AUTO 07008KT 10SM FEW060 02/M02 A3006 RMK AO2 SLP188 T00171022 58004
Loading
Personal Weather Stations






























Interactive Weather Map New forecast layout! Learn more

10-Day Weather Forecast

Advertisements
Track Severe Weather on mobile